sensor_id;sensor_type;location;lat;lon;timestamp;P1;durP1;ratioP1;P2;durP2;ratioP2
9200;SDS011;4635;48.686;9.008;2023-02-13T00:01:57;25.25;;;14.55;;
9200;SDS011;4635;48.686;9.008;2023-02-13T00:04:29;24.98;;;15.93;;
9200;SDS011;4635;48.686;9.008;2023-02-13T00:07:07;27.40;;;17.37;;
9200;SDS011;4635;48.686;9.008;2023-02-13T00:09:37;37.73;;;21.33;;
9200;SDS011;4635;48.686;9.008;2023-02-13T00:12:08;33.03;;;18.87;;
9200;SDS011;4635;48.686;9.008;2023-02-13T00:14:41;30.67;;;17.63;;
9200;SDS011;4635;48.686;9.008;2023-02-13T00:17:18;33.20;;;16.43;;
9200;SDS011;4635;48.686;9.008;2023-02-13T00:19:58;36.77;;;18.67;;
9200;SDS011;4635;48.686;9.008;2023-02-13T00:22:33;34.07;;;19.40;;
9200;SDS011;4635;48.686;9.008;2023-02-13T00:25:10;33.03;;;18.40;;
9200;SDS011;4635;48.686;9.008;2023-02-13T00:27:41;35.53;;;17.13;;
9200;SDS011;4635;48.686;9.008;2023-02-13T00:30:13;34.38;;;18.73;;
9200;SDS011;4635;48.686;9.008;2023-02-13T00:32:44;32.85;;;17.92;;
9200;SDS011;4635;48.686;9.008;2023-02-13T00:35:20;35.70;;;20.17;;
9200;SDS011;4635;48.686;9.008;2023-02-13T00:37:56;35.50;;;17.38;;
9200;SDS011;4635;48.686;9.008;2023-02-13T00:40:26;39.83;;;18.53;;
9200;SDS011;4635;48.686;9.008;2023-02-13T00:42:56;30.13;;;17.27;;
9200;SDS011;4635;48.686;9.008;2023-02-13T00:45:28;38.77;;;20.47;;
9200;SDS011;4635;48.686;9.008;2023-02-13T00:47:58;37.75;;;20.60;;
9200;SDS011;4635;48.686;9.008;2023-02-13T00:50:32;36.85;;;19.52;;
9200;SDS011;4635;48.686;9.008;2023-02-13T00:53:04;33.85;;;18.73;;
9200;SDS011;4635;48.686;9.008;2023-02-13T00:55:46;35.10;;;18.25;;
9200;SDS011;4635;48.686;9.008;2023-02-13T00:58:17;39.20;;;19.65;;
9200;SDS011;4635;48.686;9.008;2023-02-13T01:00:49;34.63;;;19.92;;
9200;SDS011;4635;48.686;9.008;2023-02-13T01:03:21;40.58;;;21.30;;
9200;SDS011;4635;48.686;9.008;2023-02-13T01:05:51;37.38;;;18.58;;
9200;SDS011;4635;48.686;9.008;2023-02-13T01:08:24;39.10;;;20.52;;
9200;SDS011;4635;48.686;9.008;2023-02-13T01:10:56;33.92;;;19.80;;
9200;SDS011;4635;48.686;9.008;2023-02-13T01:13:29;42.03;;;19.88;;
9200;SDS011;4635;48.686;9.008;2023-02-13T01:16:00;33.03;;;17.92;;
9200;SDS011;4635;48.686;9.008;2023-02-13T01:18:30;32.67;;;18.33;;
9200;SDS011;4635;48.686;9.008;2023-02-13T01:21:01;36.95;;;20.05;;
9200;SDS011;4635;48.686;9.008;2023-02-13T01:23:37;37.95;;;18.92;;
9200;SDS011;4635;48.686;9.008;2023-02-13T01:26:16;33.17;;;18.40;;
9200;SDS011;4635;48.686;9.008;2023-02-13T01:28:47;34.38;;;17.27;;
9200;SDS011;4635;48.686;9.008;2023-02-13T01:31:23;31.80;;;16.13;;
9200;SDS011;4635;48.686;9.008;2023-02-13T01:33:58;38.75;;;18.95;;
9200;SDS011;4635;48.686;9.008;2023-02-13T01:36:29;32.20;;;18.63;;
9200;SDS011;4635;48.686;9.008;2023-02-13T01:39:03;28.85;;;16.70;;
9200;SDS011;4635;48.686;9.008;2023-02-13T01:41:35;33.83;;;19.00;;
9200;SDS011;4635;48.686;9.008;2023-02-13T01:47:09;38.95;;;19.10;;
9200;SDS011;4635;48.686;9.008;2023-02-13T01:49:41;30.95;;;17.33;;
9200;SDS011;4635;48.686;9.008;2023-02-13T01:52:13;39.33;;;20.58;;
9200;SDS011;4635;48.686;9.008;2023-02-13T01:54:51;36.65;;;18.65;;
9200;SDS011;4635;48.686;9.008;2023-02-13T01:57:22;34.00;;;18.25;;
9200;SDS011;4635;48.686;9.008;2023-02-13T01:59:57;35.15;;;18.10;;
9200;SDS011;4635;48.686;9.008;2023-02-13T02:02:33;40.28;;;19.88;;
9200;SDS011;4635;48.686;9.008;2023-02-13T02:05:06;36.78;;;19.20;;
9200;SDS011;4635;48.686;9.008;2023-02-13T02:07:40;35.75;;;18.70;;
9200;SDS011;4635;48.686;9.008;2023-02-13T02:10:20;35.40;;;18.30;;
9200;SDS011;4635;48.686;9.008;2023-02-13T02:12:59;40.00;;;19.08;;
9200;SDS011;4635;48.686;9.008;2023-02-13T02:15:37;40.85;;;20.35;;
9200;SDS011;4635;48.686;9.008;2023-02-13T02:18:14;42.47;;;20.33;;
9200;SDS011;4635;48.686;9.008;2023-02-13T02:21:03;41.72;;;18.05;;
9200;SDS011;4635;48.686;9.008;2023-02-13T02:24:02;33.78;;;18.48;;
9200;SDS011;4635;48.686;9.008;2023-02-13T02:26:53;33.72;;;17.35;;
9200;SDS011;4635;48.686;9.008;2023-02-13T02:33:12;37.25;;;18.85;;
9200;SDS011;4635;48.686;9.008;2023-02-13T02:35:52;36.13;;;18.48;;
9200;SDS011;4635;48.686;9.008;2023-02-13T02:38:34;38.05;;;18.63;;
9200;SDS011;4635;48.686;9.008;2023-02-13T02:41:17;37.00;;;18.23;;
9200;SDS011;4635;48.686;9.008;2023-02-13T02:44:19;46.13;;;20.45;;
9200;SDS011;4635;48.686;9.008;2023-02-13T02:47:06;35.45;;;20.40;;
9200;SDS011;4635;48.686;9.008;2023-02-13T02:50:08;35.08;;;18.60;;
9200;SDS011;4635;48.686;9.008;2023-02-13T02:52:56;40.90;;;20.65;;
9200;SDS011;4635;48.686;9.008;2023-02-13T02:55:35;39.42;;;21.40;;
9200;SDS011;4635;48.686;9.008;2023-02-13T02:58:12;37.33;;;19.88;;
9200;SDS011;4635;48.686;9.008;2023-02-13T03:01:04;41.58;;;20.98;;
9200;SDS011;4635;48.686;9.008;2023-02-13T03:03:54;42.47;;;21.25;;
9200;SDS011;4635;48.686;9.008;2023-02-13T03:06:50;40.47;;;20.75;;
9200;SDS011;4635;48.686;9.008;2023-02-13T03:09:25;47.03;;;23.48;;
9200;SDS011;4635;48.686;9.008;2023-02-13T03:12:16;40.97;;;23.20;;
9200;SDS011;4635;48.686;9.008;2023-02-13T03:15:06;47.08;;;22.33;;
9200;SDS011;4635;48.686;9.008;2023-02-13T03:17:41;50.97;;;23.05;;
9200;SDS011;4635;48.686;9.008;2023-02-13T03:20:31;44.30;;;21.75;;
9200;SDS011;4635;48.686;9.008;2023-02-13T03:23:32;45.85;;;20.98;;
9200;SDS011;4635;48.686;9.008;2023-02-13T03:26:21;43.65;;;19.98;;
9200;SDS011;4635;48.686;9.008;2023-02-13T03:29:11;46.53;;;21.77;;
9200;SDS011;4635;48.686;9.008;2023-02-13T03:32:06;44.70;;;22.00;;
9200;SDS011;4635;48.686;9.008;2023-02-13T03:34:42;45.70;;;21.98;;
9200;SDS011;4635;48.686;9.008;2023-02-13T03:37:34;42.15;;;20.25;;
9200;SDS011;4635;48.686;9.008;2023-02-13T03:40:25;41.55;;;20.33;;
9200;SDS011;4635;48.686;9.008;2023-02-13T03:43:02;42.58;;;21.23;;
9200;SDS011;4635;48.686;9.008;2023-02-13T03:45:50;43.83;;;20.77;;
9200;SDS011;4635;48.686;9.008;2023-02-13T03:48:24;43.10;;;21.13;;
9200;SDS011;4635;48.686;9.008;2023-02-13T03:51:15;46.83;;;21.92;;
9200;SDS011;4635;48.686;9.008;2023-02-13T03:53:55;45.92;;;21.35;;
9200;SDS011;4635;48.686;9.008;2023-02-13T03:56:30;42.88;;;19.58;;
9200;SDS011;4635;48.686;9.008;2023-02-13T03:59:20;39.95;;;18.23;;
9200;SDS011;4635;48.686;9.008;2023-02-13T04:01:57;36.30;;;19.17;;
9200;SDS011;4635;48.686;9.008;2023-02-13T04:04:34;45.35;;;23.02;;
9200;SDS011;4635;48.686;9.008;2023-02-13T04:07:13;46.63;;;21.73;;
9200;SDS011;4635;48.686;9.008;2023-02-13T04:09:57;40.75;;;20.70;;
9200;SDS011;4635;48.686;9.008;2023-02-13T04:12:37;57.33;;;23.13;;
9200;SDS011;4635;48.686;9.008;2023-02-13T04:15:32;38.25;;;20.15;;
9200;SDS011;4635;48.686;9.008;2023-02-13T04:18:34;38.97;;;21.90;;
9200;SDS011;4635;48.686;9.008;2023-02-13T04:21:54;41.28;;;20.13;;
9200;SDS011;4635;48.686;9.008;2023-02-13T04:24:26;48.33;;;20.92;;
9200;SDS011;4635;48.686;9.008;2023-02-13T04:27:00;45.25;;;22.55;;
9200;SDS011;4635;48.686;9.008;2023-02-13T04:29:35;44.08;;;22.25;;
9200;SDS011;4635;48.686;9.008;2023-02-13T04:32:07;44.47;;;21.27;;
9200;SDS011;4635;48.686;9.008;2023-02-13T04:34:39;51.30;;;22.73;;
9200;SDS011;4635;48.686;9.008;2023-02-13T04:37:19;41.20;;;20.17;;
9200;SDS011;4635;48.686;9.008;2023-02-13T04:39:50;50.25;;;22.92;;
9200;SDS011;4635;48.686;9.008;2023-02-13T04:42:21;44.97;;;22.98;;
9200;SDS011;4635;48.686;9.008;2023-02-13T04:44:56;40.28;;;22.15;;
9200;SDS011;4635;48.686;9.008;2023-02-13T04:47:28;50.10;;;22.48;;
9200;SDS011;4635;48.686;9.008;2023-02-13T04:50:07;47.28;;;23.10;;
9200;SDS011;4635;48.686;9.008;2023-02-13T04:52:40;45.13;;;20.65;;
9200;SDS011;4635;48.686;9.008;2023-02-13T04:55:21;38.33;;;21.73;;
9200;SDS011;4635;48.686;9.008;2023-02-13T04:58:08;50.50;;;23.40;;
9200;SDS011;4635;48.686;9.008;2023-02-13T05:00:41;45.60;;;22.70;;
9200;SDS011;4635;48.686;9.008;2023-02-13T05:03:15;47.60;;;22.63;;
9200;SDS011;4635;48.686;9.008;2023-02-13T05:05:47;49.83;;;21.90;;
9200;SDS011;4635;48.686;9.008;2023-02-13T05:08:18;44.92;;;20.02;;
9200;SDS011;4635;48.686;9.008;2023-02-13T05:10:50;50.20;;;21.75;;
9200;SDS011;4635;48.686;9.008;2023-02-13T05:13:21;52.67;;;24.08;;
9200;SDS011;4635;48.686;9.008;2023-02-13T05:15:59;46.42;;;22.23;;
9200;SDS011;4635;48.686;9.008;2023-02-13T05:18:30;45.53;;;22.85;;
9200;SDS011;4635;48.686;9.008;2023-02-13T05:21:02;42.67;;;22.13;;
9200;SDS011;4635;48.686;9.008;2023-02-13T05:23:49;46.55;;;23.27;;
9200;SDS011;4635;48.686;9.008;2023-02-13T05:26:20;41.00;;;22.73;;
9200;SDS011;4635;48.686;9.008;2023-02-13T05:28:49;44.38;;;21.70;;
9200;SDS011;4635;48.686;9.008;2023-02-13T05:31:39;55.10;;;23.77;;
9200;SDS011;4635;48.686;9.008;2023-02-13T05:34:09;51.35;;;22.70;;
9200;SDS011;4635;48.686;9.008;2023-02-13T05:36:59;53.40;;;24.40;;
9200;SDS011;4635;48.686;9.008;2023-02-13T05:39:30;51.63;;;24.45;;
9200;SDS011;4635;48.686;9.008;2023-02-13T05:42:03;50.05;;;24.55;;
9200;SDS011;4635;48.686;9.008;2023-02-13T05:44:34;52.78;;;25.17;;
9200;SDS011;4635;48.686;9.008;2023-02-13T05:47:09;47.55;;;24.52;;
9200;SDS011;4635;48.686;9.008;2023-02-13T05:49:40;61.55;;;25.42;;
9200;SDS011;4635;48.686;9.008;2023-02-13T05:52:10;60.13;;;23.42;;
9200;SDS011;4635;48.686;9.008;2023-02-13T05:54:39;48.42;;;24.83;;
9200;SDS011;4635;48.686;9.008;2023-02-13T05:57:13;52.45;;;25.60;;
9200;SDS011;4635;48.686;9.008;2023-02-13T05:59:52;48.60;;;22.98;;
9200;SDS011;4635;48.686;9.008;2023-02-13T06:02:29;56.85;;;24.95;;
9200;SDS011;4635;48.686;9.008;2023-02-13T06:05:04;51.83;;;22.67;;
9200;SDS011;4635;48.686;9.008;2023-02-13T06:07:36;58.90;;;24.95;;
9200;SDS011;4635;48.686;9.008;2023-02-13T06:10:06;53.85;;;22.40;;
9200;SDS011;4635;48.686;9.008;2023-02-13T06:12:38;51.13;;;24.15;;
9200;SDS011;4635;48.686;9.008;2023-02-13T06:15:11;50.17;;;24.80;;
9200;SDS011;4635;48.686;9.008;2023-02-13T06:17:44;48.97;;;22.50;;
9200;SDS011;4635;48.686;9.008;2023-02-13T06:20:15;53.10;;;24.00;;
9200;SDS011;4635;48.686;9.008;2023-02-13T06:22:49;50.25;;;23.83;;
9200;SDS011;4635;48.686;9.008;2023-02-13T06:28:57;49.03;;;22.73;;
9200;SDS011;4635;48.686;9.008;2023-02-13T06:31:46;48.63;;;21.70;;
9200;SDS011;4635;48.686;9.008;2023-02-13T06:34:47;53.67;;;24.25;;
9200;SDS011;4635;48.686;9.008;2023-02-13T06:37:31;49.83;;;23.20;;
9200;SDS011;4635;48.686;9.008;2023-02-13T06:40:04;55.25;;;24.95;;
9200;SDS011;4635;48.686;9.008;2023-02-13T06:43:05;53.17;;;26.40;;
9200;SDS011;4635;48.686;9.008;2023-02-13T06:45:56;60.25;;;25.48;;
9200;SDS011;4635;48.686;9.008;2023-02-13T06:49:03;66.57;;;26.60;;
9200;SDS011;4635;48.686;9.008;2023-02-13T06:51:42;68.00;;;26.13;;
9200;SDS011;4635;48.686;9.008;2023-02-13T06:54:33;66.63;;;28.50;;
9200;SDS011;4635;48.686;9.008;2023-02-13T06:57:08;50.85;;;24.70;;
9200;SDS011;4635;48.686;9.008;2023-02-13T06:59:48;67.22;;;26.30;;
9200;SDS011;4635;48.686;9.008;2023-02-13T07:02:24;68.28;;;28.50;;
9200;SDS011;4635;48.686;9.008;2023-02-13T07:04:58;81.00;;;31.05;;
9200;SDS011;4635;48.686;9.008;2023-02-13T07:07:51;77.82;;;28.45;;
9200;SDS011;4635;48.686;9.008;2023-02-13T07:10:29;67.10;;;27.95;;
9200;SDS011;4635;48.686;9.008;2023-02-13T07:13:22;67.30;;;28.73;;
9200;SDS011;4635;48.686;9.008;2023-02-13T07:16:09;70.45;;;27.75;;
9200;SDS011;4635;48.686;9.008;2023-02-13T07:19:06;67.57;;;27.35;;
9200;SDS011;4635;48.686;9.008;2023-02-13T07:22:00;66.28;;;26.08;;
9200;SDS011;4635;48.686;9.008;2023-02-13T07:27:21;65.82;;;27.55;;
9200;SDS011;4635;48.686;9.008;2023-02-13T07:30:05;72.15;;;27.45;;
9200;SDS011;4635;48.686;9.008;2023-02-13T07:36:31;65.55;;;28.52;;
9200;SDS011;4635;48.686;9.008;2023-02-13T07:39:16;73.78;;;29.10;;
9200;SDS011;4635;48.686;9.008;2023-02-13T07:42:01;63.33;;;25.75;;
9200;SDS011;4635;48.686;9.008;2023-02-13T07:44:41;55.15;;;25.02;;
9200;SDS011;4635;48.686;9.008;2023-02-13T07:47:25;63.47;;;26.25;;
9200;SDS011;4635;48.686;9.008;2023-02-13T07:50:08;65.40;;;26.25;;
9200;SDS011;4635;48.686;9.008;2023-02-13T07:52:56;67.67;;;27.00;;
9200;SDS011;4635;48.686;9.008;2023-02-13T07:55:38;51.10;;;23.88;;
9200;SDS011;4635;48.686;9.008;2023-02-13T08:04:58;59.63;;;23.30;;
9200;SDS011;4635;48.686;9.008;2023-02-13T08:07:54;47.17;;;22.47;;
9200;SDS011;4635;48.686;9.008;2023-02-13T08:10:42;46.10;;;23.13;;
9200;SDS011;4635;48.686;9.008;2023-02-13T08:13:38;53.03;;;22.87;;
9200;SDS011;4635;48.686;9.008;2023-02-13T08:16:58;52.03;;;21.10;;
9200;SDS011;4635;48.686;9.008;2023-02-13T08:20:06;34.43;;;19.17;;
9200;SDS011;4635;48.686;9.008;2023-02-13T08:23:01;44.87;;;21.10;;
9200;SDS011;4635;48.686;9.008;2023-02-13T08:25:57;30.97;;;18.43;;
9200;SDS011;4635;48.686;9.008;2023-02-13T08:28:53;28.60;;;15.33;;
9200;SDS011;4635;48.686;9.008;2023-02-13T08:38:47;22.90;;;14.30;;
9200;SDS011;4635;48.686;9.008;2023-02-13T08:41:55;29.40;;;14.37;;
9200;SDS011;4635;48.686;9.008;2023-02-13T08:44:51;18.27;;;12.30;;
9200;SDS011;4635;48.686;9.008;2023-02-13T08:50:35;15.10;;;11.77;;
9200;SDS011;4635;48.686;9.008;2023-02-13T08:53:36;20.57;;;12.10;;
9200;SDS011;4635;48.686;9.008;2023-02-13T08:56:28;27.80;;;15.33;;
9200;SDS011;4635;48.686;9.008;2023-02-13T08:59:19;18.43;;;11.77;;
9200;SDS011;4635;48.686;9.008;2023-02-13T09:02:22;14.70;;;10.00;;
9200;SDS011;4635;48.686;9.008;2023-02-13T09:05:11;17.50;;;10.03;;
9200;SDS011;4635;48.686;9.008;2023-02-13T09:08:05;14.83;;;9.43;;
9200;SDS011;4635;48.686;9.008;2023-02-13T09:10:55;15.00;;;9.77;;
9200;SDS011;4635;48.686;9.008;2023-02-13T09:20:21;12.27;;;9.50;;
9200;SDS011;4635;48.686;9.008;2023-02-13T09:23:24;11.57;;;8.67;;
9200;SDS011;4635;48.686;9.008;2023-02-13T09:26:14;15.00;;;9.90;;
9200;SDS011;4635;48.686;9.008;2023-02-13T09:43:41;17.03;;;9.77;;
9200;SDS011;4635;48.686;9.008;2023-02-13T09:46:49;13.43;;;10.17;;
9200;SDS011;4635;48.686;9.008;2023-02-13T09:50:10;16.33;;;9.60;;
9200;SDS011;4635;48.686;9.008;2023-02-13T09:56:09;17.03;;;11.80;;
9200;SDS011;4635;48.686;9.008;2023-02-13T09:59:19;18.90;;;11.67;;
9200;SDS011;4635;48.686;9.008;2023-02-13T10:02:19;14.63;;;11.00;;
9200;SDS011;4635;48.686;9.008;2023-02-13T10:12:07;19.80;;;10.17;;
9200;SDS011;4635;48.686;9.008;2023-02-13T10:18:18;15.50;;;10.30;;
9200;SDS011;4635;48.686;9.008;2023-02-13T10:21:28;14.40;;;9.23;;
9200;SDS011;4635;48.686;9.008;2023-02-13T10:25:47;12.60;;;9.50;;
9200;SDS011;4635;48.686;9.008;2023-02-13T10:58:06;18.23;;;12.07;;
9200;SDS011;4635;48.686;9.008;2023-02-13T11:01:23;16.57;;;10.17;;
9200;SDS011;4635;48.686;9.008;2023-02-13T11:07:46;17.37;;;11.10;;
9200;SDS011;4635;48.686;9.008;2023-02-13T11:17:47;22.40;;;12.70;;
9200;SDS011;4635;48.686;9.008;2023-02-13T11:27:35;15.20;;;10.77;;
9200;SDS011;4635;48.686;9.008;2023-02-13T11:40:20;15.00;;;10.17;;
9200;SDS011;4635;48.686;9.008;2023-02-13T11:43:34;16.33;;;11.40;;
9200;SDS011;4635;48.686;9.008;2023-02-13T19:01:15;29.13;;;16.70;;
9200;SDS011;4635;48.686;9.008;2023-02-13T19:03:48;31.77;;;16.77;;
9200;SDS011;4635;48.686;9.008;2023-02-13T19:06:20;31.90;;;16.53;;
9200;SDS011;4635;48.686;9.008;2023-02-13T19:08:53;37.27;;;19.27;;
9200;SDS011;4635;48.686;9.008;2023-02-13T19:11:25;37.77;;;18.60;;
9200;SDS011;4635;48.686;9.008;2023-02-13T19:14:00;37.27;;;21.90;;
9200;SDS011;4635;48.686;9.008;2023-02-13T19:16:49;38.07;;;21.67;;
9200;SDS011;4635;48.686;9.008;2023-02-13T19:19:22;32.10;;;18.67;;
9200;SDS011;4635;48.686;9.008;2023-02-13T19:21:54;33.83;;;17.37;;
9200;SDS011;4635;48.686;9.008;2023-02-13T19:24:27;32.20;;;19.40;;
9200;SDS011;4635;48.686;9.008;2023-02-13T19:27:03;30.20;;;18.43;;
9200;SDS011;4635;48.686;9.008;2023-02-13T19:29:36;30.30;;;16.93;;
9200;SDS011;4635;48.686;9.008;2023-02-13T19:32:08;26.70;;;15.70;;
9200;SDS011;4635;48.686;9.008;2023-02-13T19:34:38;35.10;;;18.77;;
9200;SDS011;4635;48.686;9.008;2023-02-13T19:37:09;28.03;;;16.57;;
9200;SDS011;4635;48.686;9.008;2023-02-13T19:39:51;29.70;;;16.73;;
9200;SDS011;4635;48.686;9.008;2023-02-13T19:42:21;27.57;;;16.53;;
9200;SDS011;4635;48.686;9.008;2023-02-13T19:44:54;29.50;;;17.57;;
9200;SDS011;4635;48.686;9.008;2023-02-13T19:47:29;32.87;;;16.30;;
9200;SDS011;4635;48.686;9.008;2023-02-13T19:50:02;29.77;;;15.07;;
9200;SDS011;4635;48.686;9.008;2023-02-13T19:52:43;27.73;;;16.13;;
9200;SDS011;4635;48.686;9.008;2023-02-13T19:55:13;27.17;;;15.63;;
9200;SDS011;4635;48.686;9.008;2023-02-13T19:57:52;27.23;;;15.63;;
9200;SDS011;4635;48.686;9.008;2023-02-13T20:00:24;24.57;;;15.80;;
9200;SDS011;4635;48.686;9.008;2023-02-13T20:03:15;22.73;;;14.77;;
9200;SDS011;4635;48.686;9.008;2023-02-13T20:05:49;28.80;;;15.70;;
9200;SDS011;4635;48.686;9.008;2023-02-13T20:08:22;23.30;;;14.63;;
9200;SDS011;4635;48.686;9.008;2023-02-13T20:10:52;32.50;;;18.43;;
9200;SDS011;4635;48.686;9.008;2023-02-13T20:13:31;24.27;;;15.27;;
9200;SDS011;4635;48.686;9.008;2023-02-13T20:16:10;32.80;;;16.90;;
9200;SDS011;4635;48.686;9.008;2023-02-13T20:18:55;26.93;;;14.83;;
9200;SDS011;4635;48.686;9.008;2023-02-13T20:21:49;28.77;;;15.73;;
9200;SDS011;4635;48.686;9.008;2023-02-13T20:24:53;29.87;;;15.07;;
9200;SDS011;4635;48.686;9.008;2023-02-13T20:27:25;34.30;;;16.90;;
9200;SDS011;4635;48.686;9.008;2023-02-13T20:29:56;29.63;;;16.23;;
9200;SDS011;4635;48.686;9.008;2023-02-13T20:32:32;28.80;;;15.13;;
9200;SDS011;4635;48.686;9.008;2023-02-13T20:35:07;25.37;;;15.47;;
9200;SDS011;4635;48.686;9.008;2023-02-13T20:37:37;30.87;;;17.13;;
9200;SDS011;4635;48.686;9.008;2023-02-13T20:40:09;29.27;;;17.00;;
9200;SDS011;4635;48.686;9.008;2023-02-13T20:45:22;27.40;;;16.50;;
9200;SDS011;4635;48.686;9.008;2023-02-13T20:47:51;26.20;;;16.27;;
9200;SDS011;4635;48.686;9.008;2023-02-13T20:50:24;26.23;;;16.50;;
9200;SDS011;4635;48.686;9.008;2023-02-13T20:52:58;29.20;;;17.93;;
9200;SDS011;4635;48.686;9.008;2023-02-13T20:55:38;34.50;;;17.10;;
9200;SDS011;4635;48.686;9.008;2023-02-13T21:01:00;31.87;;;17.80;;
9200;SDS011;4635;48.686;9.008;2023-02-13T21:03:35;35.60;;;18.23;;
9200;SDS011;4635;48.686;9.008;2023-02-13T21:06:08;29.83;;;17.07;;
9200;SDS011;4635;48.686;9.008;2023-02-13T21:08:38;32.40;;;17.67;;
9200;SDS011;4635;48.686;9.008;2023-02-13T21:11:11;35.40;;;18.03;;
9200;SDS011;4635;48.686;9.008;2023-02-13T21:13:40;39.53;;;19.70;;
9200;SDS011;4635;48.686;9.008;2023-02-13T21:16:10;31.50;;;18.50;;
9200;SDS011;4635;48.686;9.008;2023-02-13T21:18:46;34.57;;;19.77;;
9200;SDS011;4635;48.686;9.008;2023-02-13T21:21:18;33.33;;;19.07;;
9200;SDS011;4635;48.686;9.008;2023-02-13T21:23:51;29.97;;;18.60;;
9200;SDS011;4635;48.686;9.008;2023-02-13T21:26:23;34.57;;;18.77;;
9200;SDS011;4635;48.686;9.008;2023-02-13T21:28:54;37.37;;;19.57;;
9200;SDS011;4635;48.686;9.008;2023-02-13T21:31:26;31.27;;;18.07;;
9200;SDS011;4635;48.686;9.008;2023-02-13T21:34:24;36.43;;;20.10;;
9200;SDS011;4635;48.686;9.008;2023-02-13T21:36:55;36.70;;;17.70;;
9200;SDS011;4635;48.686;9.008;2023-02-13T21:39:36;34.43;;;16.40;;
9200;SDS011;4635;48.686;9.008;2023-02-13T21:42:08;34.03;;;19.23;;
9200;SDS011;4635;48.686;9.008;2023-02-13T21:44:37;33.63;;;19.23;;
9200;SDS011;4635;48.686;9.008;2023-02-13T21:47:07;36.23;;;18.77;;
9200;SDS011;4635;48.686;9.008;2023-02-13T21:49:37;33.20;;;18.90;;
9200;SDS011;4635;48.686;9.008;2023-02-13T21:52:14;35.00;;;19.03;;
9200;SDS011;4635;48.686;9.008;2023-02-13T21:54:47;38.47;;;19.30;;
9200;SDS011;4635;48.686;9.008;2023-02-13T21:57:20;34.63;;;19.10;;
9200;SDS011;4635;48.686;9.008;2023-02-13T21:59:49;29.63;;;16.70;;
9200;SDS011;4635;48.686;9.008;2023-02-13T22:02:18;30.47;;;18.60;;
9200;SDS011;4635;48.686;9.008;2023-02-13T22:04:51;32.67;;;17.57;;
9200;SDS011;4635;48.686;9.008;2023-02-13T22:07:24;35.03;;;20.00;;
9200;SDS011;4635;48.686;9.008;2023-02-13T22:10:19;43.40;;;19.93;;
9200;SDS011;4635;48.686;9.008;2023-02-13T22:12:49;38.07;;;19.17;;
9200;SDS011;4635;48.686;9.008;2023-02-13T22:15:19;37.93;;;17.80;;
9200;SDS011;4635;48.686;9.008;2023-02-13T22:17:49;32.83;;;20.70;;
9200;SDS011;4635;48.686;9.008;2023-02-13T22:20:21;37.93;;;18.70;;
9200;SDS011;4635;48.686;9.008;2023-02-13T22:22:53;34.63;;;19.10;;
9200;SDS011;4635;48.686;9.008;2023-02-13T22:25:28;38.87;;;21.80;;
9200;SDS011;4635;48.686;9.008;2023-02-13T22:27:57;44.20;;;20.67;;
9200;SDS011;4635;48.686;9.008;2023-02-13T22:30:27;47.83;;;22.98;;
9200;SDS011;4635;48.686;9.008;2023-02-13T22:32:59;45.87;;;20.60;;
9200;SDS011;4635;48.686;9.008;2023-02-13T22:35:29;40.28;;;20.55;;
9200;SDS011;4635;48.686;9.008;2023-02-13T22:38:03;35.25;;;20.25;;
9200;SDS011;4635;48.686;9.008;2023-02-13T22:40:34;36.53;;;19.67;;
9200;SDS011;4635;48.686;9.008;2023-02-13T22:43:04;35.13;;;18.95;;
9200;SDS011;4635;48.686;9.008;2023-02-13T22:45:35;38.97;;;23.27;;
9200;SDS011;4635;48.686;9.008;2023-02-13T22:48:07;42.75;;;22.83;;
9200;SDS011;4635;48.686;9.008;2023-02-13T22:50:37;35.67;;;19.48;;
9200;SDS011;4635;48.686;9.008;2023-02-13T22:53:09;34.20;;;18.83;;
9200;SDS011;4635;48.686;9.008;2023-02-13T22:55:39;33.95;;;19.48;;
9200;SDS011;4635;48.686;9.008;2023-02-13T22:58:12;35.47;;;19.95;;
9200;SDS011;4635;48.686;9.008;2023-02-13T23:00:42;41.75;;;21.05;;
9200;SDS011;4635;48.686;9.008;2023-02-13T23:03:13;36.08;;;20.67;;
9200;SDS011;4635;48.686;9.008;2023-02-13T23:05:42;30.67;;;17.92;;
9200;SDS011;4635;48.686;9.008;2023-02-13T23:08:15;34.03;;;17.83;;
9200;SDS011;4635;48.686;9.008;2023-02-13T23:10:45;36.67;;;19.63;;
9200;SDS011;4635;48.686;9.008;2023-02-13T23:13:28;34.13;;;17.35;;
9200;SDS011;4635;48.686;9.008;2023-02-13T23:15:57;34.67;;;18.40;;
9200;SDS011;4635;48.686;9.008;2023-02-13T23:18:27;34.97;;;19.50;;
9200;SDS011;4635;48.686;9.008;2023-02-13T23:20:55;37.13;;;20.65;;
9200;SDS011;4635;48.686;9.008;2023-02-13T23:23:34;29.35;;;18.67;;
9200;SDS011;4635;48.686;9.008;2023-02-13T23:26:06;34.50;;;19.27;;
9200;SDS011;4635;48.686;9.008;2023-02-13T23:28:38;33.17;;;18.33;;
9200;SDS011;4635;48.686;9.008;2023-02-13T23:31:07;34.47;;;17.02;;
9200;SDS011;4635;48.686;9.008;2023-02-13T23:33:37;38.78;;;17.85;;
9200;SDS011;4635;48.686;9.008;2023-02-13T23:36:06;38.50;;;21.02;;
9200;SDS011;4635;48.686;9.008;2023-02-13T23:38:42;34.70;;;20.63;;
9200;SDS011;4635;48.686;9.008;2023-02-13T23:41:13;37.20;;;18.40;;
9200;SDS011;4635;48.686;9.008;2023-02-13T23:43:43;33.90;;;19.52;;
9200;SDS011;4635;48.686;9.008;2023-02-13T23:46:13;35.17;;;17.77;;
9200;SDS011;4635;48.686;9.008;2023-02-13T23:48:44;38.33;;;19.95;;
9200;SDS011;4635;48.686;9.008;2023-02-13T23:51:20;37.42;;;20.75;;
9200;SDS011;4635;48.686;9.008;2023-02-13T23:53:58;35.75;;;17.45;;
9200;SDS011;4635;48.686;9.008;2023-02-13T23:56:29;32.92;;;20.10;;
9200;SDS011;4635;48.686;9.008;2023-02-13T23:59:03;38.30;;;20.92;;
